Time;durP1;ratioP1;P1;durP2;ratioP2;P2;SDS_P1;SDS_P2;PMS_P1;PMS_P2;Temp;Humidity;BMP_temperature;BMP_pressure;BME280_temperature;BME280_humidity;BME280_pressure;Samples;Min_cycle;Max_cycle;Signal;HPM_P1;HPM_P2
2022/02/17 00:01:44;;;;;;;116.03;64.00;;;;;;;;;;5116790;28;20028;-65
2022/02/17 00:04:10;;;;;;;109.97;63.80;;;;;;;;;;5116927;28;20030;-65
2022/02/17 00:06:36;;;;;;;105.38;61.72;;;;;;;;;;5116605;28;20130;-65
2022/02/17 00:09:03;;;;;;;111.95;62.15;;;;;;;;;;5098373;28;20050;-66
2022/02/17 00:11:29;;;;;;;108.82;63.33;;;;;;;;;;5116576;28;20024;-66
2022/02/17 00:13:55;;;;;;;111.00;61.22;;;;;;;;;;5115994;28;20122;-67
2022/02/17 00:16:21;;;;;;;113.10;61.63;;;;;;;;;;5098059;28;20156;-66
2022/02/17 00:18:47;;;;;;;105.65;60.58;;;;;;;;;;5098166;28;20115;-65
2022/02/17 00:21:14;;;;;;;106.93;60.83;;;;;;;;;;5098062;28;20031;-66
2022/02/17 00:23:40;;;;;;;124.72;67.97;;;;;;;;;;5098055;28;20452;-66
2022/02/17 00:26:07;;;;;;;121.10;63.05;;;;;;;;;;5116245;28;20069;-66
2022/02/17 00:28:33;;;;;;;146.27;72.85;;;;;;;;;;5116325;28;20038;-66
2022/02/17 00:30:59;;;;;;;163.25;80.53;;;;;;;;;;5115903;28;20498;-66
2022/02/17 00:33:25;;;;;;;167.38;80.65;;;;;;;;;;5097829;28;20028;-65
2022/02/17 00:35:52;;;;;;;188.48;86.05;;;;;;;;;;5116104;28;20035;-66
2022/02/17 00:38:18;;;;;;;172.95;82.97;;;;;;;;;;5116065;28;20092;-66
2022/02/17 00:40:44;;;;;;;277.45;113.68;;;;;;;;;;5116029;28;20023;-66
2022/02/17 00:43:11;;;;;;;201.43;93.03;;;;;;;;;;5116253;28;20036;-65
2022/02/17 00:45:37;;;;;;;171.93;87.40;;;;;;;;;;5115868;28;20106;-66
2022/02/17 00:48:03;;;;;;;187.18;87.40;;;;;;;;;;5115954;28;20065;-65
2022/02/17 00:50:29;;;;;;;187.27;86.65;;;;;;;;;;5097517;28;20536;-65
2022/02/17 00:52:56;;;;;;;184.07;87.35;;;;;;;;;;5097482;28;20059;-65
2022/02/17 00:55:22;;;;;;;151.35;73.22;;;;;;;;;;5115779;28;20353;-66
2022/02/17 00:57:48;;;;;;;177.32;81.97;;;;;;;;;;5115399;28;20443;-66
2022/02/17 01:00:15;;;;;;;157.95;79.78;;;;;;;;;;5115912;28;20023;-66
2022/02/17 01:02:41;;;;;;;176.45;86.07;;;;;;;;;;5097340;28;20115;-65
2022/02/17 01:05:08;;;;;;;187.40;86.57;;;;;;;;;;5115066;28;20027;-65
2022/02/17 01:07:34;;;;;;;219.88;89.90;;;;;;;;;;5097081;28;20036;-66
2022/02/17 01:10:00;;;;;;;316.05;97.45;;;;;;;;;;5097219;28;20517;-66
2022/02/17 01:12:26;;;;;;;319.40;95.30;;;;;;;;;;5115324;28;20024;-65
2022/02/17 01:14:52;;;;;;;314.88;89.72;;;;;;;;;;5114088;28;20578;-66
2022/02/17 01:17:19;;;;;;;343.92;93.57;;;;;;;;;;5115001;28;20115;-65
2022/02/17 01:19:45;;;;;;;303.95;88.15;;;;;;;;;;5096959;28;20055;-65
2022/02/17 01:22:12;;;;;;;263.83;82.38;;;;;;;;;;5115247;28;20103;-67
2022/02/17 01:24:38;;;;;;;214.60;80.00;;;;;;;;;;5115178;28;20040;-69
2022/02/17 01:27:05;;;;;;;201.90;72.45;;;;;;;;;;5115066;28;20070;-67
2022/02/17 01:29:31;;;;;;;179.30;75.85;;;;;;;;;;5096750;28;20574;-66
2022/02/17 01:31:57;;;;;;;154.65;71.35;;;;;;;;;;5115134;28;20436;-68
2022/02/17 01:34:23;;;;;;;150.55;73.68;;;;;;;;;;5096667;28;20034;-66
2022/02/17 01:36:49;;;;;;;160.10;77.93;;;;;;;;;;5114949;28;20037;-65
2022/02/17 01:39:15;;;;;;;201.25;85.30;;;;;;;;;;5114875;28;20110;-65
2022/02/17 01:41:42;;;;;;;190.93;87.25;;;;;;;;;;5096839;28;20353;-66
2022/02/17 01:44:08;;;;;;;180.00;79.20;;;;;;;;;;5096464;28;20118;-66
2022/02/17 01:46:38;;;;;;;178.45;78.72;;;;;;;;;;5114849;28;20035;-66
2022/02/17 01:49:06;;;;;;;165.93;75.97;;;;;;;;;;5114788;28;20106;-67
2022/02/17 01:51:32;;;;;;;194.43;86.40;;;;;;;;;;5096129;28;20027;-67
2022/02/17 01:53:59;;;;;;;178.35;81.53;;;;;;;;;;5096261;28;20376;-66
2022/02/17 01:56:26;;;;;;;172.68;76.15;;;;;;;;;;5114643;28;20058;-66
2022/02/17 01:58:53;;;;;;;162.20;73.93;;;;;;;;;;5114564;28;20023;-67
2022/02/17 02:01:21;;;;;;;172.23;75.28;;;;;;;;;;5096114;28;20055;-66
2022/02/17 02:03:47;;;;;;;191.73;81.28;;;;;;;;;;5096031;28;20080;-67
2022/02/17 02:06:15;;;;;;;178.25;80.45;;;;;;;;;;5114330;28;20036;-68
2022/02/17 02:08:41;;;;;;;172.43;80.53;;;;;;;;;;5114355;28;20077;-68
2022/02/17 02:11:08;;;;;;;214.15;94.15;;;;;;;;;;5114552;28;20538;-67
2022/02/17 02:13:36;;;;;;;212.30;97.20;;;;;;;;;;5113996;28;20097;-67
2022/02/17 02:16:02;;;;;;;205.32;93.97;;;;;;;;;;5113854;28;20080;-67
2022/02/17 02:18:28;;;;;;;201.80;84.82;;;;;;;;;;5095656;28;20023;-68
2022/02/17 02:20:55;;;;;;;206.13;87.18;;;;;;;;;;5114107;28;20128;-67
2022/02/17 02:23:21;;;;;;;200.73;82.35;;;;;;;;;;5114104;28;20024;-68
2022/02/17 02:25:49;;;;;;;163.02;74.88;;;;;;;;;;5114177;28;20031;-67
2022/02/17 02:28:25;;;;;;;160.45;77.00;;;;;;;;;;5114006;28;20129;-68
2022/02/17 02:30:52;;;;;;;162.77;75.03;;;;;;;;;;5113939;28;20024;-66
2022/02/17 02:33:18;;;;;;;156.43;75.40;;;;;;;;;;5113842;28;20028;-68
2022/02/17 02:35:45;;;;;;;169.35;82.45;;;;;;;;;;5113887;28;20024;-69
2022/02/17 02:38:11;;;;;;;196.80;90.88;;;;;;;;;;5113821;28;20024;-68
2022/02/17 02:40:38;;;;;;;190.00;85.63;;;;;;;;;;5095495;28;20797;-67
2022/02/17 02:43:04;;;;;;;158.27;76.25;;;;;;;;;;5113752;28;20031;-68
2022/02/17 02:45:31;;;;;;;182.90;86.03;;;;;;;;;;5113679;28;20027;-68
2022/02/17 02:47:58;;;;;;;184.38;84.75;;;;;;;;;;5113649;28;20083;-68
2022/02/17 02:50:24;;;;;;;195.70;89.47;;;;;;;;;;5095403;28;20031;-67
2022/02/17 02:52:52;;;;;;;184.10;84.60;;;;;;;;;;5095268;28;20020;-67
2022/02/17 02:55:19;;;;;;;184.45;88.07;;;;;;;;;;5113678;28;20035;-67
2022/02/17 02:57:45;;;;;;;188.93;92.03;;;;;;;;;;5095295;28;20432;-67
2022/02/17 03:00:11;;;;;;;179.73;86.30;;;;;;;;;;5113536;28;20020;-68
2022/02/17 03:02:37;;;;;;;175.32;86.38;;;;;;;;;;5113487;28;20074;-68
2022/02/17 03:05:04;;;;;;;163.13;79.78;;;;;;;;;;5113460;28;20061;-69
2022/02/17 03:07:30;;;;;;;149.50;71.30;;;;;;;;;;5113421;28;20118;-68
2022/02/17 03:09:57;;;;;;;161.27;74.75;;;;;;;;;;5113388;28;20081;-68
2022/02/17 03:12:23;;;;;;;158.98;73.13;;;;;;;;;;5113440;28;20107;-68
2022/02/17 03:14:49;;;;;;;153.60;70.25;;;;;;;;;;5091439;28;20181;-68
2022/02/17 03:17:15;;;;;;;137.70;65.05;;;;;;;;;;5093034;28;20494;-68
2022/02/17 03:19:41;;;;;;;123.45;58.20;;;;;;;;;;5092981;28;20097;-68
2022/02/17 03:22:08;;;;;;;130.27;62.08;;;;;;;;;;5092981;28;20063;-68
2022/02/17 03:24:34;;;;;;;132.60;67.72;;;;;;;;;;5092863;28;20078;-67
2022/02/17 03:27:00;;;;;;;124.38;66.20;;;;;;;;;;5091588;28;20127;-67
2022/02/17 03:29:26;;;;;;;130.10;64.60;;;;;;;;;;5094948;28;20564;-68
2022/02/17 03:31:52;;;;;;;124.57;63.03;;;;;;;;;;5096943;28;20035;-67
2022/02/17 03:34:19;;;;;;;180.18;91.85;;;;;;;;;;5095592;28;20034;-67
2022/02/17 03:36:45;;;;;;;106.93;57.78;;;;;;;;;;5095228;28;20066;-68
2022/02/17 03:39:13;;;;;;;86.40;46.10;;;;;;;;;;5095530;28;20032;-69
2022/02/17 03:41:39;;;;;;;98.18;46.47;;;;;;;;;;5096800;28;20035;-70
2022/02/17 03:44:05;;;;;;;88.82;46.22;;;;;;;;;;5096783;28;20543;-68
2022/02/17 03:46:31;;;;;;;89.72;48.22;;;;;;;;;;5096670;28;20030;-69
2022/02/17 03:48:58;;;;;;;111.95;54.20;;;;;;;;;;5096918;28;20024;-71
2022/02/17 03:51:24;;;;;;;114.28;55.45;;;;;;;;;;5095675;28;20070;-71
2022/02/17 03:53:50;;;;;;;116.00;56.67;;;;;;;;;;5096556;28;20028;-71
2022/02/17 03:56:16;;;;;;;125.10;58.55;;;;;;;;;;5096769;28;20028;-69
2022/02/17 03:59:00;;;;;;;122.05;59.95;;;;;;;;;;5095137;28;20162;-67
2022/02/17 04:01:27;;;;;;;184.82;90.95;;;;;;;;;;5095099;28;20020;-68
2022/02/17 04:03:53;;;;;;;239.70;118.10;;;;;;;;;;5096056;28;20468;-69
2022/02/17 04:06:19;;;;;;;137.70;73.25;;;;;;;;;;5096256;28;20040;-67
2022/02/17 04:08:45;;;;;;;113.50;58.55;;;;;;;;;;5094998;28;20173;-69
2022/02/17 04:11:12;;;;;;;89.47;44.80;;;;;;;;;;5096210;28;20031;-68
2022/02/17 04:13:38;;;;;;;74.28;40.88;;;;;;;;;;5097672;28;20048;-66
2022/02/17 04:16:05;;;;;;;73.10;37.30;;;;;;;;;;5098192;28;20096;-67
2022/02/17 04:18:31;;;;;;;75.97;39.00;;;;;;;;;;5116458;28;20437;-67
2022/02/17 04:20:57;;;;;;;66.90;38.33;;;;;;;;;;5098076;28;20027;-66
2022/02/17 04:23:24;;;;;;;72.53;35.53;;;;;;;;;;5098064;28;20050;-67
2022/02/17 04:25:50;;;;;;;62.53;33.10;;;;;;;;;;5116173;28;20020;-67
2022/02/17 04:28:16;;;;;;;61.83;34.22;;;;;;;;;;5116001;28;20119;-67
2022/02/17 04:30:42;;;;;;;69.97;33.97;;;;;;;;;;5116252;28;20028;-68
2022/02/17 04:33:08;;;;;;;70.10;33.60;;;;;;;;;;5116218;28;20024;-67
2022/02/17 04:35:35;;;;;;;74.25;33.38;;;;;;;;;;5115827;28;20601;-67
2022/02/17 04:38:01;;;;;;;70.50;36.97;;;;;;;;;;5116171;28;20100;-68
2022/02/17 04:43:12;;;;;;;83.22;40.78;;;;;;;;;;5115844;28;20084;-66
2022/02/17 04:45:38;;;;;;;79.40;38.15;;;;;;;;;;5115840;28;20027;-67
2022/02/17 04:48:05;;;;;;;62.78;34.25;;;;;;;;;;5097282;28;20031;-66
2022/02/17 04:50:32;;;;;;;67.97;34.83;;;;;;;;;;5115885;28;20023;-67
2022/02/17 04:52:58;;;;;;;63.50;34.90;;;;;;;;;;5115830;28;20496;-68
2022/02/17 04:55:24;;;;;;;81.22;38.42;;;;;;;;;;5097432;28;20026;-67
2022/02/17 04:57:50;;;;;;;63.47;34.78;;;;;;;;;;5115746;28;20057;-66
2022/02/17 05:00:17;;;;;;;66.45;35.72;;;;;;;;;;5097350;28;20353;-67
2022/02/17 05:02:43;;;;;;;73.35;37.80;;;;;;;;;;5115652;28;20031;-65
2022/02/17 05:05:09;;;;;;;80.13;38.33;;;;;;;;;;5115552;28;20031;-67
2022/02/17 05:07:36;;;;;;;90.15;42.05;;;;;;;;;;5097162;28;20045;-66
2022/02/17 05:10:02;;;;;;;88.65;40.15;;;;;;;;;;5115154;28;20361;-69
2022/02/17 05:12:28;;;;;;;76.40;39.83;;;;;;;;;;5115460;28;20039;-67
2022/02/17 05:14:55;;;;;;;76.70;39.63;;;;;;;;;;5096495;28;20134;-67
2022/02/17 05:17:21;;;;;;;77.93;42.38;;;;;;;;;;5115343;28;20076;-69
2022/02/17 05:19:47;;;;;;;82.45;44.10;;;;;;;;;;5097013;28;20114;-67
2022/02/17 05:22:13;;;;;;;91.07;49.55;;;;;;;;;;5115252;28;20044;-67
2022/02/17 05:24:39;;;;;;;87.95;45.60;;;;;;;;;;5115439;28;20114;-67
2022/02/17 05:27:06;;;;;;;89.68;43.95;;;;;;;;;;5115066;28;20031;-67
2022/02/17 05:29:32;;;;;;;92.03;44.00;;;;;;;;;;5115111;28;20038;-68
2022/02/17 05:31:58;;;;;;;114.88;50.20;;;;;;;;;;5115056;28;20106;-68
2022/02/17 05:34:24;;;;;;;98.88;44.70;;;;;;;;;;5115046;28;20532;-68
2022/02/17 05:36:50;;;;;;;99.93;48.63;;;;;;;;;;5096675;28;20028;-68
2022/02/17 05:39:17;;;;;;;86.50;45.15;;;;;;;;;;5114915;28;20110;-67
2022/02/17 05:41:43;;;;;;;86.63;43.15;;;;;;;;;;5114873;28;20059;-68
2022/02/17 05:44:09;;;;;;;89.15;47.45;;;;;;;;;;5114830;28;20027;-65
2022/02/17 05:46:35;;;;;;;96.45;51.35;;;;;;;;;;5096396;28;20048;-67
2022/02/17 05:49:02;;;;;;;104.15;49.88;;;;;;;;;;5096424;28;20034;-67
2022/02/17 05:51:29;;;;;;;104.97;51.15;;;;;;;;;;5114064;28;20042;-67
2022/02/17 05:53:55;;;;;;;133.23;57.92;;;;;;;;;;5114881;28;20161;-67
2022/02/17 05:56:21;;;;;;;172.85;71.43;;;;;;;;;;5114501;28;20031;-67
2022/02/17 05:58:47;;;;;;;172.80;71.40;;;;;;;;;;5114582;28;20023;-68
2022/02/17 06:01:14;;;;;;;164.65;73.00;;;;;;;;;;5114438;28;20460;-66
2022/02/17 06:03:40;;;;;;;156.60;72.72;;;;;;;;;;5114179;28;20379;-66
2022/02/17 06:06:06;;;;;;;171.15;76.07;;;;;;;;;;5114319;28;20039;-67
2022/02/17 06:08:32;;;;;;;161.25;71.47;;;;;;;;;;5114407;28;20059;-66
2022/02/17 06:10:58;;;;;;;153.52;70.45;;;;;;;;;;5114535;28;20122;-67
2022/02/17 06:13:25;;;;;;;155.55;67.43;;;;;;;;;;5114001;28;20464;-66
2022/02/17 06:15:51;;;;;;;138.65;60.38;;;;;;;;;;5114269;28;20027;-67
2022/02/17 06:18:17;;;;;;;129.30;57.22;;;;;;;;;;5114172;28;20053;-67
2022/02/17 06:20:43;;;;;;;128.75;56.83;;;;;;;;;;5114455;28;20031;-67
2022/02/17 06:23:09;;;;;;;111.18;49.25;;;;;;;;;;5114042;28;20023;-67
2022/02/17 06:25:36;;;;;;;85.60;44.45;;;;;;;;;;5113953;28;20107;-67
2022/02/17 06:28:03;;;;;;;91.47;45.13;;;;;;;;;;5113999;28;20032;-67
2022/02/17 06:30:30;;;;;;;64.68;36.00;;;;;;;;;;5095555;28;20028;-64
2022/02/17 06:32:57;;;;;;;54.42;31.20;;;;;;;;;;5113816;28;20105;-65
2022/02/17 06:35:25;;;;;;;51.40;29.85;;;;;;;;;;5095532;28;20177;-66
2022/02/17 06:37:52;;;;;;;57.25;31.75;;;;;;;;;;5113879;28;20024;-67
2022/02/17 06:40:19;;;;;;;52.08;29.95;;;;;;;;;;5113696;28;20081;-66
2022/02/17 06:42:45;;;;;;;54.13;31.92;;;;;;;;;;5095467;28;20116;-67
2022/02/17 06:45:12;;;;;;;55.85;31.27;;;;;;;;;;5095268;28;20034;-66
2022/02/17 06:47:38;;;;;;;52.15;29.92;;;;;;;;;;5113545;28;20085;-68
2022/02/17 06:50:05;;;;;;;47.15;29.20;;;;;;;;;;5113619;28;20028;-68
2022/02/17 06:52:32;;;;;;;61.53;36.85;;;;;;;;;;5113670;28;20106;-68
2022/02/17 06:54:58;;;;;;;103.18;74.90;;;;;;;;;;5095319;28;20020;-67
2022/02/17 06:57:25;;;;;;;286.95;137.05;;;;;;;;;;5113735;28;20027;-67
2022/02/17 06:59:52;;;;;;;228.98;107.57;;;;;;;;;;5113696;28;20106;-65
2022/02/17 07:02:25;;;;;;;166.45;81.15;;;;;;;;;;5094632;28;20023;-65
2022/02/17 07:04:51;;;;;;;147.95;76.30;;;;;;;;;;5113454;28;20062;-68
2022/02/17 07:07:18;;;;;;;124.10;68.28;;;;;;;;;;5113320;28;20103;-65
2022/02/17 07:09:44;;;;;;;81.00;47.40;;;;;;;;;;5113043;28;20024;-67
2022/02/17 07:12:11;;;;;;;68.38;39.42;;;;;;;;;;5095147;28;20467;-67
2022/02/17 07:14:38;;;;;;;70.68;41.78;;;;;;;;;;5113050;28;20093;-68
2022/02/17 07:17:04;;;;;;;67.30;39.35;;;;;;;;;;5095230;28;20414;-67
2022/02/17 07:19:30;;;;;;;60.78;35.30;;;;;;;;;;5113379;28;20027;-67
2022/02/17 07:21:56;;;;;;;62.88;36.13;;;;;;;;;;5095256;28;20424;-67
2022/02/17 07:24:23;;;;;;;55.55;34.10;;;;;;;;;;5113509;28;20063;-66
2022/02/17 07:26:49;;;;;;;58.38;37.92;;;;;;;;;;5094941;28;20123;-68
2022/02/17 07:29:16;;;;;;;55.53;34.97;;;;;;;;;;5113551;28;20027;-69
2022/02/17 07:31:43;;;;;;;59.85;34.97;;;;;;;;;;5113206;28;20047;-66
2022/02/17 07:34:09;;;;;;;54.05;34.38;;;;;;;;;;5094986;28;20054;-67
2022/02/17 07:36:36;;;;;;;56.47;32.90;;;;;;;;;;5113228;28;20027;-67
2022/02/17 07:39:04;;;;;;;53.08;31.58;;;;;;;;;;5106629;28;20480;-67
2022/02/17 07:41:31;;;;;;;55.63;34.00;;;;;;;;;;5088241;28;20019;-66
2022/02/17 07:43:57;;;;;;;55.17;33.45;;;;;;;;;;5094743;28;20047;-66
2022/02/17 07:46:24;;;;;;;53.88;32.22;;;;;;;;;;5094564;28;20122;-67
2022/02/17 07:48:53;;;;;;;49.47;32.90;;;;;;;;;;5092915;28;20028;-67
2022/02/17 07:51:20;;;;;;;49.45;30.67;;;;;;;;;;5105359;28;20036;-68
2022/02/17 07:53:46;;;;;;;47.40;30.75;;;;;;;;;;5107236;28;20157;-68
2022/02/17 07:56:12;;;;;;;46.15;29.27;;;;;;;;;;5100310;28;20092;-67
2022/02/17 07:58:39;;;;;;;47.83;30.58;;;;;;;;;;5102351;28;20026;-68
2022/02/17 08:01:07;;;;;;;46.28;28.65;;;;;;;;;;5101534;28;20020;-67
2022/02/17 08:03:33;;;;;;;46.47;29.65;;;;;;;;;;5083832;28;20027;-66
2022/02/17 08:06:00;;;;;;;54.05;31.00;;;;;;;;;;5084119;28;20357;-68
2022/02/17 08:08:26;;;;;;;54.47;33.90;;;;;;;;;;5101143;28;20028;-68
2022/02/17 08:10:53;;;;;;;74.78;41.45;;;;;;;;;;5100987;28;20108;-69
2022/02/17 08:13:19;;;;;;;73.50;43.40;;;;;;;;;;5088489;28;20024;-69
2022/02/17 08:15:45;;;;;;;71.90;42.15;;;;;;;;;;5108175;28;20020;-70
2022/02/17 08:18:12;;;;;;;74.20;40.55;;;;;;;;;;5087375;28;20532;-69
2022/02/17 08:20:39;;;;;;;77.70;40.67;;;;;;;;;;5095958;28;20460;-68
2022/02/17 08:23:05;;;;;;;66.43;39.97;;;;;;;;;;5077726;28;20070;-68
2022/02/17 08:25:31;;;;;;;66.65;40.30;;;;;;;;;;5077649;28;20464;-68
2022/02/17 08:27:57;;;;;;;71.72;41.28;;;;;;;;;;5095518;28;20089;-69
2022/02/17 08:30:25;;;;;;;71.70;40.10;;;;;;;;;;5095784;28;20038;-69
2022/02/17 08:32:56;;;;;;;75.93;44.95;;;;;;;;;;5095759;28;20031;-70
2022/02/17 08:35:22;;;;;;;79.18;45.05;;;;;;;;;;5095382;28;20425;-68
2022/02/17 08:37:49;;;;;;;87.53;50.22;;;;;;;;;;5095681;28;20085;-68
2022/02/17 08:40:15;;;;;;;108.28;57.58;;;;;;;;;;5095635;28;20111;-68
2022/02/17 08:42:42;;;;;;;84.43;43.35;;;;;;;;;;5095549;28;20020;-69
2022/02/17 08:45:09;;;;;;;83.68;43.90;;;;;;;;;;5095613;28;20113;-65
2022/02/17 08:47:37;;;;;;;73.90;43.05;;;;;;;;;;5095617;28;20035;-66
2022/02/17 08:50:04;;;;;;;75.00;44.97;;;;;;;;;;5095526;28;20060;-65
2022/02/17 08:52:30;;;;;;;142.05;62.47;;;;;;;;;;5095347;28;20105;-69
2022/02/17 08:54:56;;;;;;;263.58;100.38;;;;;;;;;;5095272;28;20032;-69
2022/02/17 08:57:23;;;;;;;243.75;112.07;;;;;;;;;;5095457;28;20115;-68
2022/02/17 08:59:49;;;;;;;163.73;88.68;;;;;;;;;;5077054;28;20024;-68
2022/02/17 09:02:15;;;;;;;171.15;88.90;;;;;;;;;;5093414;28;20106;-70
2022/02/17 09:04:41;;;;;;;133.02;71.25;;;;;;;;;;5076344;28;20028;-72
2022/02/17 09:07:07;;;;;;;116.05;66.30;;;;;;;;;;5076412;28;20039;-68
2022/02/17 09:09:34;;;;;;;124.65;66.85;;;;;;;;;;5095014;28;20024;-71
2022/02/17 09:12:00;;;;;;;127.75;67.72;;;;;;;;;;5076673;28;20554;-69
2022/02/17 09:14:26;;;;;;;131.45;74.68;;;;;;;;;;5094589;28;20178;-67
2022/02/17 09:16:53;;;;;;;146.88;82.55;;;;;;;;;;5094773;28;20048;-68
2022/02/17 09:19:21;;;;;;;154.65;91.13;;;;;;;;;;5094855;28;20034;-68
2022/02/17 09:21:47;;;;;;;155.45;87.05;;;;;;;;;;5094662;28;20115;-67
2022/02/17 09:24:13;;;;;;;146.25;85.20;;;;;;;;;;5076407;28;20020;-69
2022/02/17 09:26:39;;;;;;;162.75;87.38;;;;;;;;;;5076334;28;20321;-68
2022/02/17 09:29:08;;;;;;;164.85;91.00;;;;;;;;;;5094608;28;20032;-68
2022/02/17 09:31:34;;;;;;;157.65;87.03;;;;;;;;;;5094576;28;20468;-67
2022/02/17 09:34:00;;;;;;;156.23;88.60;;;;;;;;;;5094400;28;20107;-66
2022/02/17 09:36:27;;;;;;;161.30;93.72;;;;;;;;;;5076265;28;20500;-68
2022/02/17 09:38:54;;;;;;;177.93;94.65;;;;;;;;;;5094413;28;20028;-68
2022/02/17 09:41:21;;;;;;;197.32;103.97;;;;;;;;;;5094404;28;20480;-67
2022/02/17 09:43:48;;;;;;;202.95;108.53;;;;;;;;;;5093974;28;20377;-68
2022/02/17 09:46:21;;;;;;;226.82;117.32;;;;;;;;;;5094163;28;20149;-67
2022/02/17 09:48:56;;;;;;;247.63;130.90;;;;;;;;;;5094306;28;20044;-67
2022/02/17 09:51:23;;;;;;;264.27;133.75;;;;;;;;;;5094324;28;20035;-69
2022/02/17 09:53:50;;;;;;;246.32;127.03;;;;;;;;;;5075978;28;20031;-69
2022/02/17 09:56:17;;;;;;;231.20;117.85;;;;;;;;;;5094036;28;20035;-68
2022/02/17 09:58:43;;;;;;;227.68;115.68;;;;;;;;;;5094052;28;20426;-68
2022/02/17 10:01:13;;;;;;;191.52;106.80;;;;;;;;;;5075824;28;20487;-68
2022/02/17 10:03:40;;;;;;;178.60;102.32;;;;;;;;;;5094290;28;20051;-70
2022/02/17 10:06:14;;;;;;;158.18;95.05;;;;;;;;;;5093656;28;20031;-66
2022/02/17 10:08:41;;;;;;;163.20;93.72;;;;;;;;;;5093755;28;20024;-69
2022/02/17 10:11:08;;;;;;;163.90;94.70;;;;;;;;;;5093795;28;20027;-69
2022/02/17 10:13:35;;;;;;;156.93;94.80;;;;;;;;;;5093489;28;20016;-68
2022/02/17 10:16:01;;;;;;;173.82;101.97;;;;;;;;;;5093639;28;20099;-67
2022/02/17 10:18:30;;;;;;;143.32;86.03;;;;;;;;;;5093861;28;20099;-66
2022/02/17 10:20:56;;;;;;;136.10;83.07;;;;;;;;;;5093420;28;20016;-69
2022/02/17 10:23:23;;;;;;;132.40;79.20;;;;;;;;;;5075420;28;20020;-68
2022/02/17 10:26:08;;;;;;;126.53;72.65;;;;;;;;;;5093410;28;20087;-69
2022/02/17 10:28:41;;;;;;;123.60;72.32;;;12.80;99.90;;;;;;5093035;28;20024;-65
2022/02/17 10:31:09;;;;;;;109.78;65.13;;;13.00;99.90;;;;;;5093468;28;20063;-65
2022/02/17 10:33:46;;;;;;;92.25;57.15;;;13.00;99.90;;;;;;5093204;28;20028;-64
2022/02/17 10:36:13;;;;;;;78.97;48.65;;;13.40;99.90;;;;;;5093171;28;20089;-67
2022/02/17 10:38:40;;;;;;;63.78;37.92;;;14.00;99.90;;;;;;5074658;28;20041;-64
2022/02/17 10:41:06;;;;;;;50.60;28.85;;;14.80;99.90;;;;;;5074526;28;20028;-64
2022/02/17 10:43:33;;;;;;;47.75;26.48;;;;;;;;;;5093266;28;20107;-63
2022/02/17 10:46:10;;;;;;;39.60;23.08;;;15.20;97.90;;;;;;5093046;28;20020;-64
2022/02/17 10:48:38;;;;;;;37.05;22.33;;;16.70;93.10;;;;;;5092964;28;20036;-65
2022/02/17 10:51:04;;;;;;;41.92;21.35;;;;;;;;;;5093212;28;20065;-69
2022/02/17 10:53:31;;;;;;;31.00;17.48;;;17.10;90.50;;;;;;5074645;28;20024;-69
2022/02/17 10:55:59;;;;;;;25.20;14.25;;;17.20;83.50;;;;;;5074714;28;20024;-67
2022/02/17 10:58:29;;;;;;;22.88;12.93;;;18.10;79.70;;;;;;5092988;28;20028;-68
2022/02/17 11:01:01;;;;;;;24.48;13.73;;;18.30;75.00;;;;;;5093070;28;20024;-67
2022/02/17 11:03:27;;;;;;;;;;;;;;;;;;5093531;28;20032;-69
2022/02/17 11:05:54;;;;;;;30.02;14.90;;;19.10;72.10;;;;;;5092790;28;19911;-69
2022/02/17 11:08:20;;;;;;;33.25;15.93;;;20.30;70.70;;;;;;5073770;28;20028;-68
2022/02/17 11:10:47;;;;;;;27.80;16.35;;;;;;;;;;5090947;28;20044;-70
2022/02/17 11:13:20;;;;;;;30.02;16.83;;;20.40;71.00;;;;;;5092404;28;20027;-70
2022/02/17 11:15:47;;;;;;;32.70;18.10;;;20.70;64.30;;;;;;5092770;28;20050;-68
2022/02/17 11:18:18;;;;;;;36.15;20.77;;;;;;;;;;5092650;28;20065;-68
2022/02/17 11:20:44;;;;;;;22.05;13.40;;;;;;;;;;5092924;28;20115;-69
2022/02/17 11:23:10;;;;;;;23.95;14.48;;;20.50;64.90;;;;;;5074728;28;20028;-68
2022/02/17 11:25:41;;;;;;;19.60;13.57;;;19.00;65.00;;;;;;5092809;28;20028;-67
2022/02/17 11:28:11;;;;;;;27.50;15.27;;;;;;;;;;5092521;28;20042;-68
2022/02/17 11:30:39;;;;;;;22.98;12.27;;;;;;;;;;5092823;28;20032;-69
2022/02/17 11:33:21;;;;;;;24.15;11.75;;;;;;;;;;5092642;28;20020;-69
2022/02/17 11:35:50;;;;;;;14.85;10.63;;;;;;;;;;5092696;28;20024;-67
2022/02/17 11:38:32;;;;;;;11.50;6.78;;;18.90;64.80;;;;;;5092493;28;20024;-68
2022/02/17 11:40:59;;;;;;;13.80;6.30;;;;;;;;;;5092733;28;20338;-68
2022/02/17 11:43:30;;;;;;;19.25;8.88;;;;;;;;;;5092215;28;20461;-68
2022/02/17 11:45:57;;;;;;;8.93;5.22;;;;;;;;;;5092434;28;20032;-65
2022/02/17 11:48:33;;;;;;;14.05;8.02;;;;;;;;;;5092683;28;20032;-66
2022/02/17 11:51:22;;;;;;;14.95;7.30;;;19.30;59.60;;;;;;5095503;28;20035;-67
2022/02/17 11:54:14;;;;;;;9.10;6.30;;;;;;;;;;5078304;28;20081;-69
2022/02/17 11:56:41;;;;;;;15.43;5.35;;;;;;;;;;5095927;28;20035;-70
2022/02/17 11:59:27;;;;;;;7.93;4.25;;;;;;;;;;5096468;28;20023;-68
2022/02/17 12:01:55;;;;;;;5.22;3.67;;;;;;;;;;5096046;28;20024;-69
2022/02/17 12:04:29;;;;;;;8.05;4.75;;;;;;;;;;5096614;28;20099;-67
2022/02/17 12:07:05;;;;;;;6.63;4.35;;;;;;;;;;5077852;28;20020;-68
2022/02/17 12:09:49;;;;;;;4.30;3.25;;;;;;;;;;5078112;28;20028;-67
2022/02/17 12:12:27;;;;;;;5.97;3.20;;;;;;;;;;5095965;28;20028;-69
2022/02/17 12:14:55;;;;;;;5.47;4.30;;;;;;;;;;5096152;28;20546;-68
2022/02/17 12:17:28;;;;;;;4.05;2.88;;;18.40;60.30;;;;;;5096043;28;20044;-70
2022/02/17 12:20:18;;;;;;;2.47;2.15;;;20.40;52.50;;;;;;5077589;28;20031;-68
2022/02/17 12:22:51;;;;;;;3.97;2.30;;;;;;;;;;5095592;28;20451;-70
2022/02/17 12:25:23;;;;;;;5.28;2.80;;;19.40;53.40;;;;;;5095894;28;20028;-66
2022/02/17 12:27:49;;;;;;;;;;;;;;;;;;5096354;28;20032;-68
2022/02/17 12:30:21;;;;;;;10.65;2.92;;;;;;;;;;5077456;28;19915;-68
2022/02/17 12:32:47;;;;;;;4.10;2.50;;;;;;;;;;5077543;28;20028;-65
2022/02/17 12:35:25;;;;;;;8.60;2.95;;;18.50;55.00;;;;;;5095159;28;20028;-68
2022/02/17 12:38:06;;;;;;;5.30;2.40;;;19.70;52.30;;;;;;5077509;28;20146;-65
2022/02/17 12:40:33;;;;;;;5.20;2.63;;;;;;;;;;5077142;28;20031;-67
2022/02/17 12:42:59;;;;;;;5.70;3.30;;;;;;;;;;5095468;28;20106;-66
2022/02/17 12:46:03;;;;;;;5.85;3.60;;;20.00;53.40;;;;;;5076767;28;20032;-65
2022/02/17 12:48:30;;;;;;;5.18;2.60;;;18.80;56.30;;;;;;5095680;28;20048;-66
2022/02/17 12:50:57;;;;;;;3.45;2.33;;;;;;;;;;5095295;28;20024;-66
2022/02/17 12:53:23;;;;;;;3.33;2.60;;;19.30;54.90;;;;;;5095391;28;20065;-67
2022/02/17 12:55:54;;;;;;;6.88;2.80;;;20.10;53.60;;;;;;5095587;28;20377;-66
2022/02/17 12:58:30;;;;;;;3.65;2.75;;;;;;;;;;5095377;28;20027;-67
2022/02/17 13:00:57;;;;;;;6.18;3.20;;;;;;;;;;5076687;28;20028;-67
2022/02/17 13:03:40;;;;;;;5.28;2.67;;;;;;;;;;5077017;28;20371;-66
2022/02/17 13:06:21;;;;;;;6.90;2.90;;;;;;;;;;5094928;28;20016;-70
2022/02/17 13:08:49;;;;;;;7.30;3.42;;;;;;;;;;5076912;28;20028;-68
2022/02/17 13:11:17;;;;;;;4.82;3.00;;;19.70;53.40;;;;;;5094980;28;20024;-67
2022/02/17 13:13:44;;;;;;;5.60;3.30;;;20.30;54.10;;;;;;5094775;28;20075;-70
2022/02/17 13:16:11;;;;;;;6.35;3.17;;;;;;;;;;5095148;28;20028;-69
2022/02/17 13:18:40;;;;;;;10.75;4.70;;;;;;;;;;5094804;28;20528;-69
2022/02/17 13:21:14;;;;;;;5.05;2.90;;;21.00;53.80;;;;;;5097495;28;20084;-67
2022/02/17 13:23:41;;;;;;;7.07;3.53;;;24.00;50.50;;;;;;5104740;28;20024;-66
2022/02/17 13:26:30;;;;;;;7.60;3.40;;;24.60;48.50;;;;;;5103216;28;20028;-63
2022/02/17 13:28:57;;;;;;;9.68;4.13;;;24.60;47.10;;;;;;5082922;28;20086;-66
2022/02/17 13:31:26;;;;;;;7.15;4.03;;;24.30;47.60;;;;;;5080556;28;20027;-67
2022/02/17 13:34:04;;;;;;;7.45;3.35;;;23.50;47.80;;;;;;5108966;28;20023;-66
2022/02/17 13:36:30;;;;;;;5.38;4.00;;;22.80;48.90;;;;;;5114812;28;20028;-67
2022/02/17 13:39:22;;;;;;;5.47;3.42;;;22.00;50.40;;;;;;5114725;28;20031;-67
2022/02/17 13:42:09;;;;;;;7.07;2.92;;;21.30;51.20;;;;;;5109270;28;20036;-65
2022/02/17 13:44:42;;;;;;;7.18;3.53;;;;;;;;;;5096447;28;20447;-64
2022/02/17 13:47:13;;;;;;;5.10;3.53;;;20.30;52.80;;;;;;5096134;28;20027;-66
2022/02/17 13:49:40;;;;;;;7.38;5.07;;;;;;;;;;5110926;28;20043;-63
2022/02/17 13:52:07;;;;;;;5.05;3.97;;;;;;;;;;5092985;28;20445;-65
2022/02/17 13:54:50;;;;;;;9.70;3.95;;;20.60;55.30;;;;;;5114467;28;20084;-65
2022/02/17 13:57:17;;;;;;;9.60;3.63;;;;;;;;;;5114413;28;20100;-65
2022/02/17 13:59:43;;;;;;;7.60;4.45;;;;;;;;;;5114454;28;20035;-68
2022/02/17 14:02:10;;;;;;;11.80;5.28;;;21.60;51.80;;;;;;5109097;28;20020;-70
2022/02/17 14:04:37;;;;;;;11.55;5.03;;;20.00;55.40;;;;;;5113645;28;20556;-66
2022/02/17 14:07:05;;;;;;;12.02;5.53;;;19.30;55.80;;;;;;5113838;28;20024;-65